Allston, Massachusetts
Current Conditions -  °F | °C
As of 4:54 PM on Thursday 23 Oct 2014 (Local Time) from KBOS Reporting Station
Light Rain Light Rain  
Wind Chill: 52°   Ceiling: 1000
Heat Index: 52°   Visibility: 4mi
Dew Point: 51°   Wind: 25mph
Humidity: 97%   Direction: 20°NNE
Pressure: 29.6"   Gusts: 37mph
Location:  42.36°N, 71.13°W
Report Text: KBOS 232054Z 02022G32KT 4SM -RA BR BKN010 OVC016 11/11 A2960 RMK AO2 PK WND 02037/2044 RAB1955E1956B50DZB1956E50 SLP023 P0002 60014 T01110106 53007
Loading
Personal Weather Stations






























Interactive Weather Map
Tropical Storm Tracking
New forecast layout! Learn more

10-Day Weather Forecast

Advertisements
Track Severe Weather on mobile